SBI2493 UWKJ-UWKD
Flight info
| Callsign | SBI2493 |
|---|---|
| Flight time | N/A |
| Altitude | 5000 |
| Route | K0643F170 AGBUN1B AGBUN DCT KOROM KOROM1R |
| Aircraft | B738/M-SDE2E3FGHIRWXY/LB1 |
Departure
| Time | 2026-04-26 03:24 |
|---|---|
| Airport | Yoshkar-Ola Airport (UWKJ) |
Arrival
| Time | N/A |
|---|---|
| Airport | Kazan International Airport (UWKD) |
| Time | Latitude | Longitude | Altitude | Speed | Heading |
|---|---|---|---|---|---|
| 2026-04-26 03:00 | 56.70146 | 47.90400 | 339 ft | 0 kts | 190° |
| 2026-04-26 03:17 | 56.70142 | 47.90398 | 339 ft | 1 kts | 190° |
| 2026-04-26 03:17 | 56.70131 | 47.90394 | 339 ft | 0 kts | 190° |
| 2026-04-26 03:18 | 56.70129 | 47.90393 | 339 ft | 0 kts | 191° |
| 2026-04-26 03:18 | 56.70124 | 47.90387 | 339 ft | 1 kts | 219° |
| 2026-04-26 03:18 | 56.70110 | 47.90349 | 339 ft | 5 kts | 252° |
| 2026-04-26 03:18 | 56.70102 | 47.90273 | 338 ft | 6 kts | 262° |
| 2026-04-26 03:19 | 56.70095 | 47.90182 | 337 ft | 8 kts | 262° |
| 2026-04-26 03:19 | 56.70087 | 47.90076 | 337 ft | 9 kts | 263° |
| 2026-04-26 03:19 | 56.70080 | 47.89964 | 338 ft | 8 kts | 264° |
| 2026-04-26 03:19 | 56.70074 | 47.89859 | 339 ft | 7 kts | 263° |
| 2026-04-26 03:20 | 56.70068 | 47.89762 | 340 ft | 7 kts | 263° |
| 2026-04-26 03:20 | 56.70055 | 47.89678 | 341 ft | 6 kts | 237° |
| 2026-04-26 03:20 | 56.70013 | 47.89635 | 341 ft | 7 kts | 187° |
| 2026-04-26 03:20 | 56.69951 | 47.89642 | 341 ft | 9 kts | 173° |
| 2026-04-26 03:21 | 56.69876 | 47.89658 | 341 ft | 11 kts | 173° |
| 2026-04-26 03:21 | 56.69788 | 47.89677 | 341 ft | 13 kts | 173° |
| 2026-04-26 03:21 | 56.69691 | 47.89699 | 342 ft | 14 kts | 173° |
| 2026-04-26 03:21 | 56.69588 | 47.89730 | 342 ft | 14 kts | 161° |
| 2026-04-26 03:22 | 56.69511 | 47.89805 | 342 ft | 10 kts | 164° |
| 2026-04-26 03:22 | 56.69471 | 47.89772 | 343 ft | 3 kts | 270° |
| 2026-04-26 03:22 | 56.69485 | 47.89748 | 343 ft | 2 kts | 340° |
| 2026-04-26 03:22 | 56.69499 | 47.89744 | 343 ft | 0 kts | 351° |
| 2026-04-26 03:23 | 56.69501 | 47.89743 | 343 ft | 0 kts | 351° |
| 2026-04-26 03:23 | 56.69503 | 47.89742 | 343 ft | 0 kts | 351° |
| 2026-04-26 03:23 | 56.69598 | 47.89720 | 343 ft | 55 kts | 352° |
| 2026-04-26 03:23 | 56.70379 | 47.89545 | 360 ft | 162 kts | 353° |
| 2026-04-26 03:24 | 56.71650 | 47.89273 | 1056 ft | 192 kts | 353° |
| 2026-04-26 03:24 | 56.72913 | 47.88990 | 2273 ft | 188 kts | 353° |
| 2026-04-26 03:24 | 56.74210 | 47.88656 | 3303 ft | 210 kts | 353° |
| 2026-04-26 03:24 | 56.75796 | 47.88558 | 4334 ft | 240 kts | 1° |
| 2026-04-26 03:25 | 56.77595 | 47.88568 | 4911 ft | 267 kts | 0° |
| 2026-04-26 03:25 | 56.79521 | 47.88518 | 4773 ft | 273 kts | 0° |
| 2026-04-26 03:25 | 56.81385 | 47.88486 | 4969 ft | 265 kts | 0° |
| 2026-04-26 03:25 | 56.83172 | 47.87865 | 4988 ft | 266 kts | 338° |
| 2026-04-26 03:26 | 56.84649 | 47.86165 | 4996 ft | 268 kts | 318° |
| 2026-04-26 03:26 | 56.85525 | 47.84241 | 4999 ft | 268 kts | 302° |